Time;durP1;ratioP1;P1;durP2;ratioP2;P2;SDS_P1;SDS_P2;PMS_P1;PMS_P2;Temp;Humidity;BMP_temperature;BMP_pressure;BME280_temperature;BME280_humidity;BME280_pressure;Samples;Min_cycle;Max_cycle;Signal;HPM_P1;HPM_P2
2021/04/04 00:00:00;;;;;;;3.72;1.50;;;9.20;71.90;;;;;;5078781;28;20020;-72
2021/04/04 00:02:26;;;;;;;3.17;1.55;;;9.20;71.30;;;;;;5078676;28;20108;-72
2021/04/04 00:04:52;;;;;;;5.45;1.58;;;9.20;71.80;;;;;;5078527;28;20428;-72
2021/04/04 00:07:18;;;;;;;3.15;1.42;;;9.10;68.10;;;;;;5078597;28;20060;-72
2021/04/04 00:09:43;;;;;;;6.70;1.52;;;9.10;70.60;;;;;;5078641;28;20031;-72
2021/04/04 00:12:09;;;;;;;4.65;1.90;;;9.00;67.00;;;;;;5078413;28;20108;-72
2021/04/04 00:14:36;;;;;;;2.28;1.15;;;9.00;72.80;;;;;;5078346;28;20019;-72
2021/04/04 00:17:03;;;;;;;3.55;1.50;;;9.00;72.80;;;;;;5078566;28;20020;-72
2021/04/04 00:19:29;;;;;;;3.47;1.20;;;9.00;70.80;;;;;;5077803;28;20025;-72
2021/04/04 00:21:55;;;;;;;4.10;1.63;;;9.10;70.40;;;;;;5078272;28;20043;-72
2021/04/04 00:24:20;;;;;;;4.63;1.63;;;9.10;66.10;;;;;;5078193;28;20033;-72
2021/04/04 00:26:46;;;;;;;3.90;1.40;;;9.10;65.10;;;;;;5060507;28;20154;-72
2021/04/04 00:29:12;;;;;;;3.72;1.88;;;9.10;64.60;;;;;;5060379;28;20135;-72
2021/04/04 00:31:39;;;;;;;2.13;1.30;;;9.00;65.50;;;;;;5078212;28;20024;-72
2021/04/04 00:34:07;;;;;;;3.13;1.35;;;8.90;63.80;;;;;;5078114;28;20032;-73
2021/04/04 00:36:34;;;;;;;2.70;1.15;;;8.90;61.60;;;;;;5078006;28;20104;-72
2021/04/04 00:39:00;;;;;;;3.80;1.13;;;9.00;64.20;;;;;;5078069;28;20425;-72
2021/04/04 00:41:26;;;;;;;2.38;1.30;;;9.10;67.60;;;;;;5077808;28;20108;-72
2021/04/04 00:43:52;;;;;;;3.10;1.35;;;9.10;70.20;;;;;;5077920;28;20103;-72
2021/04/04 00:46:17;;;;;;;3.72;1.40;;;9.00;71.20;;;;;;5060026;28;20412;-72
2021/04/04 00:48:43;;;;;;;3.85;1.42;;;9.00;67.30;;;;;;5078004;28;20043;-72
2021/04/04 00:51:09;;;;;;;3.17;1.30;;;9.00;68.20;;;;;;5077641;28;20020;-72
2021/04/04 00:53:35;;;;;;;4.15;1.40;;;9.00;66.30;;;;;;5078017;28;20029;-72
2021/04/04 00:56:01;;;;;;;4.97;1.60;;;9.10;68.60;;;;;;5077621;28;20316;-72
2021/04/04 00:58:26;;;;;;;3.00;1.30;;;9.00;70.90;;;;;;5077805;28;20024;-72
2021/04/04 01:00:52;;;;;;;3.25;1.45;;;8.90;68.40;;;;;;5077526;28;20024;-72
2021/04/04 01:03:18;;;;;;;2.45;1.50;;;8.80;70.20;;;;;;5077424;28;20100;-72
2021/04/04 01:05:49;;;;;;;2.22;1.20;;;8.70;69.10;;;;;;5077435;28;20422;-72
2021/04/04 01:08:15;;;;;;;4.25;1.60;;;8.70;71.70;;;;;;5077647;28;20078;-71
2021/04/04 01:10:46;;;;;;;2.88;1.45;;;8.50;69.20;;;;;;5077278;28;20029;-72
2021/04/04 01:13:20;;;;;;;3.75;1.20;;;8.60;71.40;;;;;;5077422;28;20127;-72
2021/04/04 01:16:12;;;;;;;2.42;1.25;;;8.50;71.00;;;;;;5077240;28;20032;-72
2021/04/04 01:19:05;;;;;;;2.35;1.10;;;8.50;68.00;;;;;;5077486;28;20021;-72
2021/04/04 01:21:46;;;;;;;2.65;1.23;;;8.60;71.00;;;;;;5077575;28;20093;-72
2021/04/04 01:24:32;;;;;;;1.55;0.90;;;8.60;71.20;;;;;;5077064;28;20037;-72
2021/04/04 01:27:24;;;;;;;5.18;1.77;;;8.60;71.30;;;;;;5077180;28;20039;-72
2021/04/04 01:29:51;;;;;;;2.40;1.27;;;8.70;71.40;;;;;;5076783;28;20105;-72
2021/04/04 01:32:17;;;;;;;3.25;1.20;;;8.60;70.20;;;;;;5077061;28;20165;-71
2021/04/04 01:34:43;;;;;;;1.88;1.20;;;8.50;71.20;;;;;;5059155;28;20055;-72
2021/04/04 01:37:13;;;;;;;2.78;1.20;;;8.40;70.40;;;;;;5059177;28;20078;-72
2021/04/04 01:39:47;;;;;;;3.88;1.08;;;8.40;71.80;;;;;;5077057;28;20045;-72
2021/04/04 01:42:15;;;;;;;5.72;1.65;;;8.40;67.50;;;;;;5076930;28;20028;-72
2021/04/04 01:44:45;;;;;;;3.70;1.25;;;8.50;64.50;;;;;;5076876;28;20078;-72
2021/04/04 01:47:12;;;;;;;4.75;1.25;;;8.40;62.30;;;;;;5076790;28;20078;-71
2021/04/04 01:49:44;;;;;;;4.32;1.00;;;8.40;64.90;;;;;;5076910;28;20024;-71
2021/04/04 01:52:11;;;;;;;3.13;1.08;;;8.40;63.50;;;;;;5076733;28;20036;-71
2021/04/04 01:54:38;;;;;;;5.65;1.10;;;8.40;64.50;;;;;;5076881;28;20025;-71
2021/04/04 01:57:05;;;;;;;2.03;1.00;;;8.40;66.00;;;;;;5076695;28;20320;-72
2021/04/04 01:59:32;;;;;;;3.28;1.17;;;8.40;62.90;;;;;;5076663;28;20078;-72
2021/04/04 02:01:59;;;;;;;1.90;1.10;;;8.30;64.90;;;;;;5076664;28;20034;-71
2021/04/04 02:04:26;;;;;;;3.22;1.38;;;8.40;67.40;;;;;;5076572;28;20023;-73
2021/04/04 02:06:53;;;;;;;2.92;1.17;;;8.30;67.50;;;;;;5076637;28;20033;-74
2021/04/04 02:09:20;;;;;;;4.65;1.10;;;8.30;65.60;;;;;;5076622;28;20020;-72
2021/04/04 02:11:47;;;;;;;3.13;1.13;;;8.20;65.80;;;;;;5058663;28;20324;-73
2021/04/04 02:14:19;;;;;;;2.72;1.10;;;8.30;63.30;;;;;;5076461;28;20020;-73
2021/04/04 02:16:51;;;;;;;2.30;1.00;;;8.30;63.30;;;;;;5076787;28;20345;-73
2021/04/04 02:19:19;;;;;;;2.40;1.17;;;8.20;64.40;;;;;;5076561;28;20083;-74
2021/04/04 02:21:48;;;;;;;3.22;0.98;;;8.20;63.70;;;;;;5076656;28;20412;-73
2021/04/04 02:24:15;;;;;;;3.08;1.33;;;8.20;64.00;;;;;;5058542;28;20037;-73
2021/04/04 02:26:41;;;;;;;1.50;0.90;;;8.20;63.80;;;;;;5076443;28;20024;-73
2021/04/04 02:29:07;;;;;;;2.13;1.20;;;8.20;64.60;;;;;;5076355;28;20052;-73
2021/04/04 02:31:37;;;;;;;5.22;1.30;;;8.20;64.80;;;;;;5076334;28;20055;-73
2021/04/04 02:34:09;;;;;;;2.55;1.20;;;8.20;71.20;;;;;;5076475;28;20025;-73
2021/04/04 02:36:38;;;;;;;5.10;1.45;;;8.30;69.50;;;;;;5076380;28;20028;-74
2021/04/04 02:39:12;;;;;;;3.33;1.35;;;8.20;65.00;;;;;;5076531;28;20048;-74
2021/04/04 02:41:38;;;;;;;8.10;1.30;;;8.20;68.70;;;;;;5060291;28;20293;-74
2021/04/04 02:44:05;;;;;;;3.95;1.10;;;8.20;70.30;;;;;;5080325;28;20323;-73
2021/04/04 02:46:32;;;;;;;2.30;1.10;;;8.10;66.50;;;;;;5062388;28;20021;-73
2021/04/04 02:49:02;;;;;;;1.90;1.08;;;8.00;65.60;;;;;;5080285;28;20032;-73
2021/04/04 02:51:41;;;;;;;3.15;1.33;;;8.00;66.90;;;;;;5080011;28;20028;-73
2021/04/04 02:54:08;;;;;;;4.60;1.20;;;8.00;67.00;;;;;;5080370;28;20116;-74
2021/04/04 02:56:41;;;;;;;5.15;3.00;;;8.00;69.10;;;;;;5079913;28;20024;-73
2021/04/04 02:59:14;;;;;;;8.45;1.92;;;8.00;66.20;;;;;;5080208;28;20106;-71
2021/04/04 03:01:41;;;;;;;4.93;1.40;;;8.00;67.90;;;;;;5062143;28;20028;-74
2021/04/04 03:04:07;;;;;;;6.47;1.73;;;8.00;65.60;;;;;;5079715;28;20074;-74
2021/04/04 03:06:39;;;;;;;4.38;1.40;;;8.00;65.60;;;;;;5080021;28;20028;-71
2021/04/04 03:09:05;;;;;;;1.98;1.02;;;8.10;64.40;;;;;;5079727;28;20301;-73
2021/04/04 03:11:31;;;;;;;5.28;1.10;;;8.10;63.60;;;;;;5079685;28;20016;-74
2021/04/04 03:13:58;;;;;;;3.42;1.13;;;8.10;61.10;;;;;;5061767;28;20021;-72
2021/04/04 03:16:25;;;;;;;7.63;1.30;;;8.00;62.10;;;;;;5079552;28;20360;-73
2021/04/04 03:18:53;;;;;;;1.88;1.02;;;8.10;64.70;;;;;;5061777;28;20020;-73
2021/04/04 03:21:19;;;;;;;6.18;1.10;;;8.10;61.70;;;;;;5079440;28;20028;-73
2021/04/04 03:23:45;;;;;;;2.75;1.17;;;8.10;61.80;;;;;;5079764;28;20289;-73
2021/04/04 03:26:12;;;;;;;3.33;1.10;;;8.00;60.90;;;;;;5079342;28;20021;-73
2021/04/04 03:28:41;;;;;;;1.83;1.00;;;8.00;61.50;;;;;;5079083;28;20052;-73
2021/04/04 03:31:14;;;;;;;4.57;1.42;;;8.10;61.20;;;;;;5079466;28;20029;-71
2021/04/04 03:33:40;;;;;;;2.88;0.88;;;8.00;61.70;;;;;;5079422;28;20024;-73
2021/04/04 03:36:07;;;;;;;3.63;1.48;;;7.90;62.20;;;;;;5079206;28;20043;-73
2021/04/04 03:38:33;;;;;;;2.25;1.00;;;7.90;61.30;;;;;;5079284;28;20024;-73
2021/04/04 03:41:00;;;;;;;6.57;1.30;;;7.90;62.70;;;;;;5079175;28;20031;-73
2021/04/04 03:43:29;;;;;;;4.70;1.27;;;8.00;61.70;;;;;;5079253;28;20142;-74
2021/04/04 03:46:05;;;;;;;4.68;1.20;;;7.90;62.10;;;;;;5061274;28;20067;-74
2021/04/04 03:48:33;;;;;;;3.08;1.17;;;7.90;61.90;;;;;;5079051;28;20297;-73
2021/04/04 03:51:02;;;;;;;1.73;0.88;;;7.80;61.80;;;;;;5061149;28;20021;-72
2021/04/04 03:53:29;;;;;;;2.25;0.90;;;7.80;61.10;;;;;;5077707;28;20102;-71
2021/04/04 03:55:59;;;;;;;1.90;1.20;;;7.80;63.40;;;;;;5079082;28;20101;-71
2021/04/04 03:58:26;;;;;;;2.97;1.10;;;7.90;63.10;;;;;;5078803;28;20028;-72
2021/04/04 04:00:54;;;;;;;2.85;1.00;;;7.90;63.20;;;;;;5078770;28;20423;-72
2021/04/04 04:03:21;;;;;;;5.60;2.55;;;7.90;62.60;;;;;;5078646;28;20107;-71
2021/04/04 04:05:49;;;;;;;4.38;2.25;;;7.90;63.40;;;;;;5078642;28;20021;-72
2021/04/04 04:08:16;;;;;;;3.65;2.08;;;7.80;63.70;;;;;;5061150;28;20357;-72
2021/04/04 04:10:44;;;;;;;3.72;1.35;;;7.80;63.70;;;;;;5078567;28;20100;-72
2021/04/04 04:13:10;;;;;;;2.20;1.20;;;7.70;63.40;;;;;;5078379;28;20327;-71
2021/04/04 04:15:36;;;;;;;3.28;1.30;;;7.70;65.30;;;;;;5078454;28;20088;-71
2021/04/04 04:18:05;;;;;;;2.47;1.17;;;7.70;64.00;;;;;;5060681;28;20096;-71
2021/04/04 04:20:32;;;;;;;1.83;1.30;;;7.80;68.00;;;;;;5078361;28;20511;-71
2021/04/04 04:23:01;;;;;;;4.90;1.20;;;7.90;70.00;;;;;;5078501;28;20024;-71
2021/04/04 04:25:27;;;;;;;3.03;1.45;;;7.80;68.70;;;;;;5078194;28;20091;-72
2021/04/04 04:27:54;;;;;;;2.42;1.10;;;7.80;65.30;;;;;;5078047;28;20028;-73
2021/04/04 04:30:21;;;;;;;2.83;1.52;;;7.80;64.20;;;;;;5078199;28;20324;-73
2021/04/04 04:32:51;;;;;;;4.40;1.13;;;7.80;66.70;;;;;;5060245;28;20036;-73
2021/04/04 04:35:18;;;;;;;3.33;1.20;;;7.90;70.10;;;;;;5078013;28;20021;-73
2021/04/04 04:37:44;;;;;;;2.95;1.17;;;7.80;71.40;;;;;;5078009;28;20316;-71
2021/04/04 04:40:10;;;;;;;2.40;1.10;;;7.70;67.20;;;;;;5078001;28;20020;-71
2021/04/04 04:42:41;;;;;;;2.95;1.05;;;7.70;67.80;;;;;;5077922;28;20028;-71
2021/04/04 04:45:15;;;;;;;2.10;1.45;;;7.80;69.60;;;;;;5078059;28;20373;-73
2021/04/04 04:47:42;;;;;;;3.60;1.27;;;7.80;67.80;;;;;;5077895;28;20024;-71
2021/04/04 04:50:09;;;;;;;2.60;1.35;;;7.80;69.30;;;;;;5077856;28;20020;-72
2021/04/04 04:52:36;;;;;;;2.03;1.42;;;7.80;67.00;;;;;;5077719;28;20032;-71
2021/04/04 04:55:02;;;;;;;5.72;1.20;;;7.80;68.00;;;;;;5077641;28;20038;-71
2021/04/04 04:57:28;;;;;;;2.53;1.27;;;7.80;69.80;;;;;;5077601;28;20324;-71
2021/04/04 04:59:57;;;;;;;2.67;1.17;;;7.90;67.80;;;;;;5077575;28;20051;-71
2021/04/04 05:02:23;;;;;;;2.25;1.25;;;7.90;67.90;;;;;;5077797;28;20039;-71
2021/04/04 05:04:49;;;;;;;2.08;1.02;;;7.90;69.70;;;;;;5077076;28;20025;-71
2021/04/04 05:07:18;;;;;;;2.97;1.45;;;7.90;70.30;;;;;;5077587;28;20047;-71
2021/04/04 05:09:46;;;;;;;2.08;1.17;;;7.80;69.80;;;;;;5077508;28;20312;-73
2021/04/04 05:12:20;;;;;;;4.05;1.45;;;7.80;70.80;;;;;;5077310;28;20083;-73
2021/04/04 05:14:46;;;;;;;2.38;1.33;;;7.80;69.70;;;;;;5077232;28;20359;-71
2021/04/04 05:17:12;;;;;;;3.00;1.30;;;7.80;68.00;;;;;;5077218;28;20024;-71
2021/04/04 05:19:39;;;;;;;3.88;1.35;;;7.80;68.10;;;;;;5077309;28;20071;-71
2021/04/04 05:22:07;;;;;;;2.35;1.45;;;7.90;67.80;;;;;;5077168;28;20111;-71
2021/04/04 05:24:33;;;;;;;3.10;1.60;;;7.90;69.60;;;;;;5077296;28;20423;-71
2021/04/04 05:26:59;;;;;;;3.47;1.30;;;7.90;72.30;;;;;;5077075;28;20031;-71
2021/04/04 05:29:25;;;;;;;4.60;1.40;;;7.90;71.20;;;;;;5076994;28;20041;-71
2021/04/04 05:31:52;;;;;;;2.13;1.10;;;7.90;70.10;;;;;;5077006;28;20089;-71
2021/04/04 05:34:26;;;;;;;2.33;1.10;;;7.80;67.20;;;;;;5076858;28;20070;-71
2021/04/04 05:36:51;;;;;;;3.85;0.95;;;7.90;69.70;;;;;;5077005;28;20028;-71
2021/04/04 05:39:22;;;;;;;2.65;1.20;;;7.90;69.50;;;;;;5076881;28;20025;-71
2021/04/04 05:41:54;;;;;;;5.68;1.30;;;7.90;70.00;;;;;;5077023;28;20320;-71
2021/04/04 05:44:30;;;;;;;2.47;1.10;;;8.00;65.80;;;;;;5076979;28;20323;-71
2021/04/04 05:47:00;;;;;;;;;;;8.00;64.10;;;;;;5077256;28;20066;-71
2021/04/04 05:50:02;;;;;;;2.83;1.73;;;8.00;64.40;;;;;;5059090;28;20318;-71
2021/04/04 05:52:46;;;;;;;2.63;1.30;;;8.10;65.20;;;;;;5044466;28;20040;-71
2021/04/04 05:55:27;;;;;;;2.92;1.70;;;8.10;68.50;;;;;;5076739;28;20037;-71
2021/04/04 05:58:11;;;;;;;3.95;1.60;;;8.20;69.80;;;;;;5076736;28;20078;-71
2021/04/04 06:00:42;;;;;;;3.53;1.20;;;8.30;67.40;;;;;;5077003;28;20028;-71
2021/04/04 06:03:52;;;;;;;2.88;1.23;;;8.30;67.60;;;;;;5076615;28;20319;-71
2021/04/04 06:07:03;;;;;;;2.78;1.13;;;8.40;60.40;;;;;;5022272;28;20040;-71
2021/04/04 06:09:59;;;;;;;3.40;1.38;;;8.40;61.60;;;;;;5076595;28;20102;-71
2021/04/04 06:12:43;;;;;;;2.63;1.30;;;8.50;63.30;;;;;;5076595;28;20024;-71
2021/04/04 06:15:30;;;;;;;4.68;1.48;;;8.60;60.30;;;;;;5076540;28;20046;-71
2021/04/04 06:18:14;;;;;;;3.75;1.70;;;8.70;60.30;;;;;;5080307;28;20041;-72
2021/04/04 06:21:03;;;;;;;3.05;1.15;;;8.80;60.90;;;;;;5080938;28;20028;-72
2021/04/04 06:23:38;;;;;;;3.13;1.30;;;8.80;58.80;;;;;;5080919;28;20033;-72
2021/04/04 06:26:16;;;;;;;3.35;1.40;;;8.90;60.00;;;;;;5080498;28;20124;-72
2021/04/04 06:28:56;;;;;;;2.88;1.55;;;8.90;60.20;;;;;;5080504;28;20060;-72
2021/04/04 06:31:32;;;;;;;2.58;1.25;;;8.90;60.40;;;;;;5062590;28;20025;-72
2021/04/04 06:34:13;;;;;;;3.20;1.30;;;8.90;59.80;;;;;;5080340;28;20078;-72
2021/04/04 06:37:13;;;;;;;5.07;1.42;;;8.90;60.20;;;;;;5062604;28;20477;-72
2021/04/04 06:39:51;;;;;;;4.13;1.50;;;8.90;61.80;;;;;;5080300;28;20073;-72
2021/04/04 06:42:33;;;;;;;3.33;1.33;;;8.80;58.60;;;;;;5080337;28;20027;-72
2021/04/04 06:45:43;;;;;;;4.75;1.38;;;8.70;60.40;;;;;;5080205;28;20162;-73
2021/04/04 06:48:50;;;;;;;3.13;1.30;;;8.50;62.50;;;;;;5054134;28;20166;-74
2021/04/04 06:51:49;;;;;;;5.93;1.35;;;8.50;63.10;;;;;;5038914;28;20029;-73
2021/04/04 06:54:29;;;;;;;4.03;1.33;;;8.60;59.90;;;;;;5035762;28;20191;-73
2021/04/04 06:57:19;;;;;;;4.07;1.70;;;8.60;59.20;;;;;;5080180;28;20071;-73
2021/04/04 07:00:03;;;;;;;4.43;1.85;;;8.40;60.70;;;;;;5080074;28;20028;-72
2021/04/04 07:02:45;;;;;;;3.70;1.55;;;8.30;60.20;;;;;;5080175;28;20094;-72
2021/04/04 07:05:13;;;;;;;1.83;1.10;;;8.40;63.10;;;;;;5061997;28;20020;-72
2021/04/04 07:08:00;;;;;;;3.47;1.65;;;8.40;63.20;;;;;;5079992;28;20435;-73
2021/04/04 07:11:00;;;;;;;2.70;1.45;;;8.50;61.80;;;;;;5079706;28;20025;-72
2021/04/04 07:13:53;;;;;;;4.25;1.30;;;8.80;62.60;;;;;;5079749;28;20028;-73
2021/04/04 07:16:38;;;;;;;2.78;1.55;;;9.00;62.50;;;;;;5079585;28;20024;-72
2021/04/04 07:19:04;;;;;;;3.17;1.67;;;9.10;60.80;;;;;;5079528;28;20090;-72
2021/04/04 07:21:55;;;;;;;2.17;1.50;;;9.40;62.40;;;;;;5079481;28;20017;-72
2021/04/04 07:24:48;;;;;;;3.65;1.75;;;9.60;59.50;;;;;;5079444;28;20166;-72
2021/04/04 07:27:53;;;;;;;3.90;1.42;;;9.90;60.70;;;;;;5076047;28;20029;-72
2021/04/04 07:31:04;;;;;;;3.92;1.85;;;10.20;60.50;;;;;;5048753;28;20044;-72
2021/04/04 07:34:06;;;;;;;5.32;1.42;;;11.00;56.40;;;;;;4998069;28;20034;-72
2021/04/04 07:36:50;;;;;;;2.83;1.73;;;12.10;53.10;;;;;;5079276;28;20107;-72
2021/04/04 07:39:28;;;;;;;4.45;1.90;;;12.50;51.70;;;;;;5061408;28;20085;-72
2021/04/04 07:42:18;;;;;;;3.55;1.33;;;12.40;52.30;;;;;;5079542;28;20306;-72
2021/04/04 07:44:49;;;;;;;5.30;1.63;;;12.20;53.20;;;;;;5079273;28;20033;-72
2021/04/04 07:47:45;;;;;;;5.10;1.95;;;12.30;55.70;;;;;;5079014;28;20025;-72
2021/04/04 07:50:15;;;;;;;3.42;1.67;;;12.60;54.40;;;;;;5079095;28;20074;-72
2021/04/04 07:52:56;;;;;;;3.17;1.65;;;13.30;52.00;;;;;;5079030;28;20024;-72
2021/04/04 07:55:59;;;;;;;2.53;1.50;;;13.80;50.00;;;;;;5079145;28;20328;-72
2021/04/04 07:58:31;;;;;;;4.78;2.00;;;14.40;51.30;;;;;;5078773;28;20059;-72
2021/04/04 08:01:18;;;;;;;2.25;1.48;;;14.40;49.20;;;;;;5079107;28;20035;-72
2021/04/04 08:03:59;;;;;;;5.63;1.77;;;14.90;50.20;;;;;;5078918;28;20353;-72
2021/04/04 08:06:30;;;;;;;3.00;1.60;;;15.30;46.90;;;;;;5060958;28;20024;-72
2021/04/04 08:09:17;;;;;;;4.90;2.40;;;15.80;48.00;;;;;;5078633;28;20127;-72
2021/04/04 08:12:08;;;;;;;3.80;1.85;;;16.30;46.70;;;;;;5060741;28;20408;-72
2021/04/04 08:14:47;;;;;;;3.17;1.65;;;16.70;45.80;;;;;;5078602;28;20049;-73
2021/04/04 08:17:13;;;;;;;5.88;1.67;;;16.70;48.20;;;;;;5078665;28;20021;-73
2021/04/04 08:19:43;;;;;;;3.90;1.85;;;16.90;46.40;;;;;;5060691;28;20058;-73
2021/04/04 08:22:14;;;;;;;4.80;1.90;;;17.00;44.30;;;;;;5078678;28;20024;-72
2021/04/04 08:24:45;;;;;;;5.25;1.88;;;17.00;46.30;;;;;;5078259;28;20041;-72
2021/04/04 08:27:22;;;;;;;4.00;2.08;;;16.70;42.90;;;;;;5078365;28;20470;-72
2021/04/04 08:30:03;;;;;;;2.83;1.80;;;16.70;43.20;;;;;;5078112;28;20045;-73
2021/04/04 08:32:43;;;;;;;4.10;1.80;;;16.90;43.90;;;;;;5078117;28;20040;-73
2021/04/04 08:35:11;;;;;;;3.47;1.77;;;16.70;46.80;;;;;;5078086;28;20025;-72
2021/04/04 08:37:46;;;;;;;3.85;2.15;;;16.70;44.40;;;;;;5078019;28;20412;-73
2021/04/04 08:40:14;;;;;;;3.10;1.58;;;17.00;43.70;;;;;;5077359;28;20035;-73
2021/04/04 08:42:43;;;;;;;3.58;1.90;;;17.10;46.10;;;;;;5060221;28;20036;-73
2021/04/04 08:45:26;;;;;;;6.00;1.92;;;17.80;42.60;;;;;;5077775;28;20024;-73
2021/04/04 08:47:52;;;;;;;3.65;1.80;;;18.10;44.30;;;;;;5077987;28;20106;-73
2021/04/04 08:50:20;;;;;;;4.68;1.90;;;18.00;42.50;;;;;;5078067;28;20029;-73
2021/04/04 08:53:01;;;;;;;2.75;1.67;;;17.90;42.10;;;;;;5077548;28;20466;-73
2021/04/04 08:55:29;;;;;;;3.88;2.13;;;17.90;42.10;;;;;;5059990;28;20047;-73
2021/04/04 08:58:00;;;;;;;4.53;2.08;;;18.10;41.50;;;;;;5077712;28;20017;-73
2021/04/04 09:00:28;;;;;;;3.47;1.92;;;17.90;42.30;;;;;;5077574;28;20409;-73
2021/04/04 09:03:03;;;;;;;4.00;1.80;;;17.70;41.80;;;;;;5077505;28;20034;-73
2021/04/04 09:05:30;;;;;;;2.40;1.77;;;17.60;44.90;;;;;;5077452;28;20095;-73
2021/04/04 09:07:59;;;;;;;3.30;1.73;;;17.80;45.10;;;;;;5077348;28;20045;-73
2021/04/04 09:10:28;;;;;;;3.58;1.50;;;17.60;47.10;;;;;;5077460;28;20451;-73
2021/04/04 09:12:55;;;;;;;3.47;1.90;;;17.60;45.20;;;;;;5077280;28;20027;-73
2021/04/04 09:15:22;;;;;;;2.70;1.67;;;17.20;44.50;;;;;;5077235;28;20074;-72
2021/04/04 09:17:55;;;;;;;3.10;2.15;;;16.10;43.60;;;;;;5077519;28;20023;-72
2021/04/04 09:20:36;;;;;;;7.15;2.53;;;15.50;44.30;;;;;;5077274;28;20313;-72
2021/04/04 09:23:03;;;;;;;4.85;1.88;;;16.20;45.70;;;;;;5077698;28;20393;-73
2021/04/04 09:25:36;;;;;;;4.53;2.10;;;16.80;43.50;;;;;;5077094;28;20039;-73
2021/04/04 09:28:07;;;;;;;5.78;2.10;;;17.10;45.50;;;;;;5076928;28;20077;-73
2021/04/04 09:30:40;;;;;;;4.13;2.15;;;16.90;44.00;;;;;;5077137;28;20319;-72
2021/04/04 09:33:12;;;;;;;4.50;2.00;;;17.10;45.80;;;;;;5077161;28;20032;-73
2021/04/04 09:35:40;;;;;;;4.70;2.05;;;17.20;44.40;;;;;;5077191;28;20023;-73
2021/04/04 09:38:11;;;;;;;2.78;1.90;;;17.00;43.70;;;;;;5077417;28;20020;-73
2021/04/04 09:40:39;;;;;;;3.33;1.77;;;16.30;45.10;;;;;;5059278;28;20024;-72
2021/04/04 09:43:09;;;;;;;4.97;2.10;;;15.40;44.60;;;;;;5076927;28;20358;-72
2021/04/04 09:45:36;;;;;;;4.97;2.05;;;14.70;46.50;;;;;;5059117;28;20029;-72
2021/04/04 09:48:24;;;;;;;3.00;2.15;;;14.00;48.30;;;;;;5076816;28;20033;-72
2021/04/04 09:51:10;;;;;;;3.65;2.03;;;13.40;49.10;;;;;;5076756;28;20016;-72
2021/04/04 09:53:36;;;;;;;4.70;2.03;;;12.60;50.10;;;;;;5077045;28;20032;-72
2021/04/04 09:56:06;;;;;;;3.30;2.00;;;12.20;50.00;;;;;;5077193;28;20279;-74
2021/04/04 09:58:32;;;;;;;3.80;2.30;;;11.90;50.60;;;;;;5058935;28;20047;-71
2021/04/04 10:01:01;;;;;;;3.30;2.03;;;11.80;51.10;;;;;;5076720;28;20025;-74
2021/04/04 10:03:27;;;;;;;3.40;2.13;;;11.80;51.20;;;;;;5076850;28;20066;-73
2021/04/04 10:05:53;;;;;;;3.65;2.25;;;11.70;51.70;;;;;;5058859;28;20063;-74
2021/04/04 10:08:24;;;;;;;4.22;2.15;;;11.60;51.10;;;;;;5077047;28;20420;-74
2021/04/04 10:10:51;;;;;;;3.33;2.25;;;11.50;49.40;;;;;;5076900;28;20099;-73
2021/04/04 10:13:22;;;;;;;5.43;2.75;;;11.40;52.50;;;;;;5074415;28;20031;-72
2021/04/04 10:15:50;;;;;;;3.55;2.08;;;11.50;52.50;;;;;;5087573;28;20034;-72
2021/04/04 10:18:17;;;;;;;3.58;2.00;;;12.60;49.60;;;;;;5076580;28;20021;-72
2021/04/04 10:20:52;;;;;;;3.75;2.08;;;14.10;48.50;;;;;;5076662;28;20040;-72
2021/04/04 10:23:19;;;;;;;3.38;2.10;;;15.50;48.10;;;;;;5058754;28;20367;-73
2021/04/04 10:26:05;;;;;;;3.08;2.10;;;16.70;43.10;;;;;;5058695;28;20409;-73
2021/04/04 10:28:40;;;;;;;;;;;17.50;40.70;;;;;;5076611;28;20139;-72
2021/04/04 10:31:06;;;;;;;3.85;2.67;;;17.70;39.90;;;;;;5076328;28;19912;-73
2021/04/04 10:33:31;;;;;;;3.70;2.22;;;17.90;42.10;;;;;;5076353;28;20024;-73
2021/04/04 10:36:19;;;;;;;2.45;1.92;;;18.20;41.90;;;;;;5076579;28;20017;-73
2021/04/04 10:38:45;;;;;;;3.00;2.00;;;18.70;40.30;;;;;;5076317;28;20031;-73
2021/04/04 10:41:23;;;;;;;2.42;2.05;;;18.90;40.00;;;;;;5076330;28;20027;-73
2021/04/04 10:43:50;;;;;;;4.15;2.15;;;18.00;38.40;;;;;;5058437;28;20417;-73
2021/04/04 10:46:17;;;;;;;3.97;2.28;;;17.90;40.40;;;;;;5076193;28;20021;-72
2021/04/04 10:48:47;;;;;;;3.17;2.00;;;17.20;42.60;;;;;;5058454;28;20409;-73
2021/04/04 10:51:15;;;;;;;3.05;1.85;;;17.80;42.10;;;;;;5076262;28;20017;-73
2021/04/04 10:53:41;;;;;;;3.40;2.28;;;17.90;38.50;;;;;;5076448;28;20420;-72
2021/04/04 10:56:09;;;;;;;3.55;2.05;;;17.10;39.50;;;;;;5076181;28;20104;-72
2021/04/04 10:58:37;;;;;;;3.92;2.85;;;17.40;40.50;;;;;;5076425;28;20094;-72
2021/04/04 11:01:05;;;;;;;4.28;2.30;;;17.70;42.80;;;;;;5058339;28;20376;-73
2021/04/04 11:03:31;;;;;;;3.28;1.90;;;17.70;39.20;;;;;;5078774;28;20082;-73
2021/04/04 11:06:01;;;;;;;2.67;2.00;;;17.70;43.10;;;;;;5079889;28;20107;-72
2021/04/04 11:08:27;;;;;;;3.67;2.00;;;18.40;41.50;;;;;;5079756;28;20078;-73
2021/04/04 11:10:54;;;;;;;3.78;2.13;;;18.70;39.20;;;;;;5079713;28;20339;-73
2021/04/04 11:13:21;;;;;;;3.22;2.15;;;18.10;38.50;;;;;;5079550;28;20028;-72
2021/04/04 11:15:53;;;;;;;3.90;2.10;;;18.50;39.20;;;;;;5079603;28;20025;-72
2021/04/04 11:18:49;;;;;;;3.30;1.90;;;18.70;37.50;;;;;;5079643;28;20024;-72
2021/04/04 11:21:25;;;;;;;6.13;1.80;;;18.90;40.00;;;;;;5079618;28;20078;-73
2021/04/04 11:23:51;;;;;;;2.40;1.80;;;19.20;39.60;;;;;;5079797;28;20111;-73
2021/04/04 11:26:29;;;;;;;4.57;1.90;;;18.90;39.40;;;;;;5061683;28;20120;-72
2021/04/04 11:29:12;;;;;;;3.08;1.92;;;18.60;37.20;;;;;;5079370;28;20049;-72
2021/04/04 11:31:41;;;;;;;3.38;2.22;;;18.50;42.40;;;;;;5079562;28;20025;-72
2021/04/04 11:34:25;;;;;;;4.65;2.00;;;18.50;37.70;;;;;;5079227;28;20027;-72
2021/04/04 11:36:51;;;;;;;3.92;2.00;;;17.50;36.90;;;;;;5079286;28;20020;-72
2021/04/04 11:39:17;;;;;;;2.95;1.70;;;17.10;41.50;;;;;;5079332;28;20090;-73
2021/04/04 11:41:49;;;;;;;4.07;1.90;;;17.30;41.90;;;;;;5079178;28;20020;-73
2021/04/04 11:44:31;;;;;;;2.90;1.90;;;17.70;41.10;;;;;;5079117;28;20024;-73
2021/04/04 11:47:02;;;;;;;3.05;1.95;;;18.20;43.10;;;;;;5079116;28;20314;-73
2021/04/04 11:49:49;;;;;;;8.02;2.35;;;17.80;40.00;;;;;;5079067;28;20323;-72
2021/04/04 11:52:17;;;;;;;;;;;17.10;42.30;;;;;;5079268;28;20408;-72
2021/04/04 11:57:13;;;;;;;4.13;2.30;;;15.30;42.60;;;;;;5079168;28;20035;-72
2021/04/04 11:59:39;;;;;;;2.38;1.90;;;14.60;44.40;;;;;;5079056;28;20016;-72
2021/04/04 12:02:05;;;;;;;5.32;2.17;;;14.00;46.20;;;;;;5078786;28;20089;-72
2021/04/04 12:04:32;;;;;;;3.83;1.90;;;14.00;46.00;;;;;;5078594;28;20046;-72
2021/04/04 12:07:05;;;;;;;3.97;2.33;;;13.70;45.60;;;;;;5078949;28;20024;-72
2021/04/04 12:09:32;;;;;;;4.15;2.10;;;13.70;45.30;;;;;;5078820;28;20096;-72
2021/04/04 12:11:58;;;;;;;3.55;2.25;;;13.90;46.90;;;;;;5078820;28;20361;-72
2021/04/04 12:14:24;;;;;;;3.40;2.20;;;14.30;47.30;;;;;;5059572;28;20106;-72
2021/04/04 12:16:52;;;;;;;4.15;2.00;;;14.70;42.70;;;;;;5078511;28;20060;-72
2021/04/04 12:19:27;;;;;;;4.75;2.20;;;14.60;45.30;;;;;;5078649;28;20044;-72
2021/04/04 12:21:54;;;;;;;5.90;2.42;;;14.30;44.20;;;;;;5078357;28;20028;-72
2021/04/04 12:24:20;;;;;;;3.83;2.60;;;14.00;45.70;;;;;;5078279;28;20090;-73
2021/04/04 12:26:52;;;;;;;3.05;2.20;;;13.50;46.20;;;;;;5078272;28;20083;-72
2021/04/04 12:29:18;;;;;;;3.38;2.45;;;13.10;46.50;;;;;;5078156;28;20078;-72
2021/04/04 12:31:44;;;;;;;4.07;1.80;;;13.10;50.50;;;;;;5078401;28;20032;-72
2021/04/04 12:34:10;;;;;;;4.32;2.10;;;13.00;47.30;;;;;;5078100;28;20020;-72
2021/04/04 12:36:45;;;;;;;2.58;2.25;;;13.00;48.90;;;;;;5078109;28;20416;-72
2021/04/04 12:39:13;;;;;;;5.22;2.08;;;13.40;48.90;;;;;;5078200;28;20020;-72
2021/04/04 12:41:40;;;;;;;3.33;2.20;;;13.70;49.70;;;;;;5078010;28;20363;-72
2021/04/04 12:44:06;;;;;;;3.88;2.13;;;13.90;48.10;;;;;;5078080;28;20373;-72
2021/04/04 12:46:34;;;;;;;4.00;2.38;;;14.10;47.70;;;;;;5077905;28;20290;-72
2021/04/04 12:49:00;;;;;;;3.70;2.20;;;14.00;44.10;;;;;;5077867;28;20074;-72
2021/04/04 12:51:26;;;;;;;3.92;2.25;;;13.80;47.00;;;;;;5077640;28;20025;-72
2021/04/04 12:53:52;;;;;;;5.22;2.25;;;13.60;49.60;;;;;;5078084;28;20035;-72
2021/04/04 12:56:37;;;;;;;3.45;2.30;;;13.80;50.30;;;;;;5077696;28;20032;-72
2021/04/04 12:59:14;;;;;;;2.72;1.85;;;13.70;45.50;;;;;;5077861;28;20023;-72
2021/04/04 13:01:43;;;;;;;4.80;1.88;;;13.40;48.50;;;;;;5077925;28;20020;-72
2021/04/04 13:04:20;;;;;;;5.13;2.45;;;13.20;49.20;;;;;;5077473;28;20028;-72
2021/04/04 13:06:46;;;;;;;8.25;2.20;;;13.10;48.10;;;;;;5077556;28;20321;-74
2021/04/04 13:09:16;;;;;;;3.08;2.03;;;13.00;48.30;;;;;;5077570;28;20017;-72
2021/04/04 13:11:44;;;;;;;4.28;2.10;;;12.90;50.20;;;;;;5077622;28;20033;-72
2021/04/04 13:14:14;;;;;;;3.22;2.15;;;12.90;50.60;;;;;;5077221;28;20017;-72
2021/04/04 13:16:42;;;;;;;3.88;2.60;;;12.80;49.70;;;;;;5077251;28;20020;-72
2021/04/04 13:19:09;;;;;;;3.78;2.70;;;12.70;49.40;;;;;;5077300;28;20018;-72
2021/04/04 13:21:36;;;;;;;3.30;2.10;;;13.00;51.60;;;;;;5077216;28;20024;-72